Dingwall, Canada
Current Conditions -  °F | °C
As of 5:00 PM on Saturday 22 Nov 2014 (Local Time) from CYQY Reporting Station
Broken Clouds Broken Clouds  
Wind Chill: 14°   Ceiling: 3200
Heat Index: 25°   Visibility: 10mi
Dew Point: 18°   Wind: 12mph
Humidity: 74%   Direction: 240°WSW
Pressure: 29.95"   Gusts: 20mph
Location:  46.9°N, 60.47°W
Report Text: CYQY 222100Z 24010G17KT 10SM BKN032 M04/M08 A2995 RMK SC6 SLP147
Loading
Personal Weather Stations






























Interactive Weather Map New forecast layout! Learn more

10-Day Weather Forecast

Advertisements
Track Severe Weather on mobile